sensor_id;sensor_type;location;lat;lon;timestamp;temperature;humidity
7708;DHT22;3896;48.758;8.888;2023-03-23T00:01:28;13.80;59.90
7708;DHT22;3896;48.758;8.888;2023-03-23T00:03:56;13.90;60.10
7708;DHT22;3896;48.758;8.888;2023-03-23T00:06:23;13.90;60.10
7708;DHT22;3896;48.758;8.888;2023-03-23T00:08:51;13.90;60.10
7708;DHT22;3896;48.758;8.888;2023-03-23T00:11:24;13.90;60.10
7708;DHT22;3896;48.758;8.888;2023-03-23T00:13:52;13.90;60.00
7708;DHT22;3896;48.758;8.888;2023-03-23T00:16:23;13.90;60.00
7708;DHT22;3896;48.758;8.888;2023-03-23T00:18:54;13.90;60.10
7708;DHT22;3896;48.758;8.888;2023-03-23T00:21:22;14.00;60.20
7708;DHT22;3896;48.758;8.888;2023-03-23T00:23:51;14.00;60.20
7708;DHT22;3896;48.758;8.888;2023-03-23T00:26:17;14.00;60.10
7708;DHT22;3896;48.758;8.888;2023-03-23T00:28:43;14.00;60.20
7708;DHT22;3896;48.758;8.888;2023-03-23T00:31:11;14.00;60.20
7708;DHT22;3896;48.758;8.888;2023-03-23T00:33:38;14.00;60.50
7708;DHT22;3896;48.758;8.888;2023-03-23T00:36:07;14.00;60.50
7708;DHT22;3896;48.758;8.888;2023-03-23T00:38:34;14.00;60.50
7708;DHT22;3896;48.758;8.888;2023-03-23T00:41:01;14.00;60.50
7708;DHT22;3896;48.758;8.888;2023-03-23T00:43:28;14.00;60.50
7708;DHT22;3896;48.758;8.888;2023-03-23T00:45:55;14.00;60.50
7708;DHT22;3896;48.758;8.888;2023-03-23T00:48:22;14.00;60.40
7708;DHT22;3896;48.758;8.888;2023-03-23T00:50:48;14.00;60.40
7708;DHT22;3896;48.758;8.888;2023-03-23T00:53:15;14.00;60.30
7708;DHT22;3896;48.758;8.888;2023-03-23T00:55:45;14.10;60.30
7708;DHT22;3896;48.758;8.888;2023-03-23T00:58:12;14.10;60.30
7708;DHT22;3896;48.758;8.888;2023-03-23T01:00:39;14.00;60.10
7708;DHT22;3896;48.758;8.888;2023-03-23T01:03:05;14.10;60.30
7708;DHT22;3896;48.758;8.888;2023-03-23T01:05:35;14.10;60.30
7708;DHT22;3896;48.758;8.888;2023-03-23T01:08:02;14.00;60.20
7708;DHT22;3896;48.758;8.888;2023-03-23T01:10:29;14.10;60.30
7708;DHT22;3896;48.758;8.888;2023-03-23T01:12:58;14.00;60.20
7708;DHT22;3896;48.758;8.888;2023-03-23T01:15:24;14.00;61.00
7708;DHT22;3896;48.758;8.888;2023-03-23T01:17:49;14.00;60.30
7708;DHT22;3896;48.758;8.888;2023-03-23T01:20:15;14.10;60.30
7708;DHT22;3896;48.758;8.888;2023-03-23T01:22:42;14.00;60.20
7708;DHT22;3896;48.758;8.888;2023-03-23T01:25:09;14.10;60.50
7708;DHT22;3896;48.758;8.888;2023-03-23T01:27:36;14.00;60.30
7708;DHT22;3896;48.758;8.888;2023-03-23T01:30:02;14.00;60.60
7708;DHT22;3896;48.758;8.888;2023-03-23T01:32:28;14.00;60.70
7708;DHT22;3896;48.758;8.888;2023-03-23T01:34:54;14.00;60.70
7708;DHT22;3896;48.758;8.888;2023-03-23T01:37:20;14.00;60.70
7708;DHT22;3896;48.758;8.888;2023-03-23T01:39:45;14.00;60.70
7708;DHT22;3896;48.758;8.888;2023-03-23T01:42:12;14.00;60.70
7708;DHT22;3896;48.758;8.888;2023-03-23T01:47:03;14.00;60.70
7708;DHT22;3896;48.758;8.888;2023-03-23T01:49:35;14.00;60.70
7708;DHT22;3896;48.758;8.888;2023-03-23T01:52:05;14.00;60.70
7708;DHT22;3896;48.758;8.888;2023-03-23T01:54:34;14.00;60.80
7708;DHT22;3896;48.758;8.888;2023-03-23T01:57:12;14.00;61.60
7708;DHT22;3896;48.758;8.888;2023-03-23T01:59:39;14.00;60.90
7708;DHT22;3896;48.758;8.888;2023-03-23T02:02:05;14.00;60.90
7708;DHT22;3896;48.758;8.888;2023-03-23T02:04:31;14.00;61.10
7708;DHT22;3896;48.758;8.888;2023-03-23T02:06:59;14.00;61.50
7708;DHT22;3896;48.758;8.888;2023-03-23T02:09:25;14.00;61.90
7708;DHT22;3896;48.758;8.888;2023-03-23T02:11:52;14.00;62.40
7708;DHT22;3896;48.758;8.888;2023-03-23T02:14:19;14.00;63.00
7708;DHT22;3896;48.758;8.888;2023-03-23T02:22:24;13.90;62.80
7708;DHT22;3896;48.758;8.888;2023-03-23T02:25:23;13.80;62.80
7708;DHT22;3896;48.758;8.888;2023-03-23T02:33:43;13.70;62.30
7708;DHT22;3896;48.758;8.888;2023-03-23T02:39:09;13.70;62.40
7708;DHT22;3896;48.758;8.888;2023-03-23T02:41:57;13.60;62.50
7708;DHT22;3896;48.758;8.888;2023-03-23T02:44:26;13.60;62.80
7708;DHT22;3896;48.758;8.888;2023-03-23T02:46:56;13.60;62.90
7708;DHT22;3896;48.758;8.888;2023-03-23T02:49:24;13.60;62.90
7708;DHT22;3896;48.758;8.888;2023-03-23T02:51:51;13.60;63.20
7708;DHT22;3896;48.758;8.888;2023-03-23T02:54:18;13.50;63.20
7708;DHT22;3896;48.758;8.888;2023-03-23T02:56:45;13.50;63.40
7708;DHT22;3896;48.758;8.888;2023-03-23T02:59:12;13.50;63.40
7708;DHT22;3896;48.758;8.888;2023-03-23T03:04:24;13.50;63.20
7708;DHT22;3896;48.758;8.888;2023-03-23T03:12:24;13.40;62.80
7708;DHT22;3896;48.758;8.888;2023-03-23T03:17:31;13.40;63.20
7708;DHT22;3896;48.758;8.888;2023-03-23T03:20:01;13.40;63.20
7708;DHT22;3896;48.758;8.888;2023-03-23T03:22:38;13.40;63.30
7708;DHT22;3896;48.758;8.888;2023-03-23T03:25:07;13.40;63.20
7708;DHT22;3896;48.758;8.888;2023-03-23T03:27:33;13.40;63.20
7708;DHT22;3896;48.758;8.888;2023-03-23T03:30:02;13.40;63.30
7708;DHT22;3896;48.758;8.888;2023-03-23T03:32:43;13.40;63.40
7708;DHT22;3896;48.758;8.888;2023-03-23T03:35:12;13.40;63.40
7708;DHT22;3896;48.758;8.888;2023-03-23T03:37:38;13.40;63.50
7708;DHT22;3896;48.758;8.888;2023-03-23T03:40:17;13.40;63.80
7708;DHT22;3896;48.758;8.888;2023-03-23T03:42:44;13.40;63.90
7708;DHT22;3896;48.758;8.888;2023-03-23T03:45:12;13.40;64.10
7708;DHT22;3896;48.758;8.888;2023-03-23T03:47:38;13.40;64.40
7708;DHT22;3896;48.758;8.888;2023-03-23T03:50:04;13.30;64.10
7708;DHT22;3896;48.758;8.888;2023-03-23T03:52:31;13.40;64.10
7708;DHT22;3896;48.758;8.888;2023-03-23T03:54:57;13.40;64.10
7708;DHT22;3896;48.758;8.888;2023-03-23T03:57:23;13.40;64.10
7708;DHT22;3896;48.758;8.888;2023-03-23T03:59:49;13.40;63.90
7708;DHT22;3896;48.758;8.888;2023-03-23T04:02:15;13.40;63.90
7708;DHT22;3896;48.758;8.888;2023-03-23T04:04:48;13.40;63.90
7708;DHT22;3896;48.758;8.888;2023-03-23T04:07:15;13.40;63.80
7708;DHT22;3896;48.758;8.888;2023-03-23T04:09:44;13.40;63.90
7708;DHT22;3896;48.758;8.888;2023-03-23T04:12:12;13.40;64.10
7708;DHT22;3896;48.758;8.888;2023-03-23T04:14:38;13.40;63.90
7708;DHT22;3896;48.758;8.888;2023-03-23T04:17:03;13.40;63.70
7708;DHT22;3896;48.758;8.888;2023-03-23T04:19:29;13.40;63.80
7708;DHT22;3896;48.758;8.888;2023-03-23T04:21:58;13.40;64.10
7708;DHT22;3896;48.758;8.888;2023-03-23T04:24:24;13.40;64.30
7708;DHT22;3896;48.758;8.888;2023-03-23T04:26:50;13.40;64.30
7708;DHT22;3896;48.758;8.888;2023-03-23T04:29:19;13.40;64.40
7708;DHT22;3896;48.758;8.888;2023-03-23T04:31:45;13.40;64.30
7708;DHT22;3896;48.758;8.888;2023-03-23T04:34:11;13.40;64.30
7708;DHT22;3896;48.758;8.888;2023-03-23T04:36:40;13.40;64.40
7708;DHT22;3896;48.758;8.888;2023-03-23T04:39:06;13.40;64.50
7708;DHT22;3896;48.758;8.888;2023-03-23T04:41:38;13.40;64.60
7708;DHT22;3896;48.758;8.888;2023-03-23T04:44:05;13.40;64.80
7708;DHT22;3896;48.758;8.888;2023-03-23T04:46:31;13.40;64.60
7708;DHT22;3896;48.758;8.888;2023-03-23T04:48:57;13.40;64.50
7708;DHT22;3896;48.758;8.888;2023-03-23T04:51:25;13.40;64.70
7708;DHT22;3896;48.758;8.888;2023-03-23T04:53:51;13.40;64.60
7708;DHT22;3896;48.758;8.888;2023-03-23T04:56:17;13.40;64.50
7708;DHT22;3896;48.758;8.888;2023-03-23T04:58:43;13.40;64.30
7708;DHT22;3896;48.758;8.888;2023-03-23T05:01:10;13.50;64.40
7708;DHT22;3896;48.758;8.888;2023-03-23T05:03:39;13.50;64.50
7708;DHT22;3896;48.758;8.888;2023-03-23T05:06:05;13.40;64.40
7708;DHT22;3896;48.758;8.888;2023-03-23T05:08:31;13.50;64.60
7708;DHT22;3896;48.758;8.888;2023-03-23T05:10:59;13.50;64.60
7708;DHT22;3896;48.758;8.888;2023-03-23T05:13:26;13.40;64.40
7708;DHT22;3896;48.758;8.888;2023-03-23T05:15:52;13.50;64.50
7708;DHT22;3896;48.758;8.888;2023-03-23T05:18:18;13.40;64.50
7708;DHT22;3896;48.758;8.888;2023-03-23T05:20:45;13.50;64.70
7708;DHT22;3896;48.758;8.888;2023-03-23T05:23:12;13.50;64.60
7708;DHT22;3896;48.758;8.888;2023-03-23T05:25:38;13.50;64.70
7708;DHT22;3896;48.758;8.888;2023-03-23T05:28:08;13.50;64.70
7708;DHT22;3896;48.758;8.888;2023-03-23T05:30:34;13.50;65.00
7708;DHT22;3896;48.758;8.888;2023-03-23T05:33:00;13.50;65.10
7708;DHT22;3896;48.758;8.888;2023-03-23T05:35:25;13.50;65.30
7708;DHT22;3896;48.758;8.888;2023-03-23T05:37:52;13.50;65.60
7708;DHT22;3896;48.758;8.888;2023-03-23T05:40:19;13.50;66.10
7708;DHT22;3896;48.758;8.888;2023-03-23T05:42:45;13.50;66.40
7708;DHT22;3896;48.758;8.888;2023-03-23T05:45:12;13.50;66.50
7708;DHT22;3896;48.758;8.888;2023-03-23T05:47:39;13.50;66.90
7708;DHT22;3896;48.758;8.888;2023-03-23T05:50:07;13.50;67.00
7708;DHT22;3896;48.758;8.888;2023-03-23T05:52:35;13.50;66.80
7708;DHT22;3896;48.758;8.888;2023-03-23T05:55:04;13.50;66.60
7708;DHT22;3896;48.758;8.888;2023-03-23T05:57:30;13.50;66.80
7708;DHT22;3896;48.758;8.888;2023-03-23T05:59:56;13.50;66.60
7708;DHT22;3896;48.758;8.888;2023-03-23T06:02:23;13.50;66.60
7708;DHT22;3896;48.758;8.888;2023-03-23T06:04:50;13.50;66.50
7708;DHT22;3896;48.758;8.888;2023-03-23T06:07:15;13.50;66.60
7708;DHT22;3896;48.758;8.888;2023-03-23T06:09:41;13.50;66.60
7708;DHT22;3896;48.758;8.888;2023-03-23T06:12:08;13.50;66.40
7708;DHT22;3896;48.758;8.888;2023-03-23T06:14:35;13.50;66.80
7708;DHT22;3896;48.758;8.888;2023-03-23T06:17:00;13.50;66.70
7708;DHT22;3896;48.758;8.888;2023-03-23T06:19:26;13.50;67.00
7708;DHT22;3896;48.758;8.888;2023-03-23T06:21:54;13.50;67.10
7708;DHT22;3896;48.758;8.888;2023-03-23T06:24:19;13.50;67.80
7708;DHT22;3896;48.758;8.888;2023-03-23T06:26:46;13.50;67.90
7708;DHT22;3896;48.758;8.888;2023-03-23T06:29:13;13.50;67.50
7708;DHT22;3896;48.758;8.888;2023-03-23T06:31:45;13.50;67.10
7708;DHT22;3896;48.758;8.888;2023-03-23T06:34:11;13.50;67.40
7708;DHT22;3896;48.758;8.888;2023-03-23T06:36:37;13.50;67.10
7708;DHT22;3896;48.758;8.888;2023-03-23T06:39:04;13.50;66.60
7708;DHT22;3896;48.758;8.888;2023-03-23T06:41:33;13.60;66.60
7708;DHT22;3896;48.758;8.888;2023-03-23T06:43:59;13.60;67.20
7708;DHT22;3896;48.758;8.888;2023-03-23T06:46:26;13.60;67.10
7708;DHT22;3896;48.758;8.888;2023-03-23T06:48:51;13.60;67.10
7708;DHT22;3896;48.758;8.888;2023-03-23T06:51:18;13.60;67.60
7708;DHT22;3896;48.758;8.888;2023-03-23T06:53:43;13.60;67.60
7708;DHT22;3896;48.758;8.888;2023-03-23T06:56:09;13.70;67.90
7708;DHT22;3896;48.758;8.888;2023-03-23T06:58:37;13.70;67.80
7708;DHT22;3896;48.758;8.888;2023-03-23T07:01:03;13.70;67.50
7708;DHT22;3896;48.758;8.888;2023-03-23T07:03:29;13.70;67.20
7708;DHT22;3896;48.758;8.888;2023-03-23T07:05:56;13.70;67.30
7708;DHT22;3896;48.758;8.888;2023-03-23T07:08:22;13.70;67.60
7708;DHT22;3896;48.758;8.888;2023-03-23T07:10:50;13.80;68.50
7708;DHT22;3896;48.758;8.888;2023-03-23T07:13:17;13.80;68.90
7708;DHT22;3896;48.758;8.888;2023-03-23T07:15:43;13.80;69.40
7708;DHT22;3896;48.758;8.888;2023-03-23T07:18:09;13.80;69.80
7708;DHT22;3896;48.758;8.888;2023-03-23T07:20:35;13.80;69.50
7708;DHT22;3896;48.758;8.888;2023-03-23T07:23:02;13.90;69.40
7708;DHT22;3896;48.758;8.888;2023-03-23T07:25:27;13.90;69.30
7708;DHT22;3896;48.758;8.888;2023-03-23T07:27:53;13.90;69.30
7708;DHT22;3896;48.758;8.888;2023-03-23T07:30:19;13.90;70.10
7708;DHT22;3896;48.758;8.888;2023-03-23T07:32:45;13.90;70.20
7708;DHT22;3896;48.758;8.888;2023-03-23T07:35:11;14.00;70.70
7708;DHT22;3896;48.758;8.888;2023-03-23T07:37:37;14.00;69.70
7708;DHT22;3896;48.758;8.888;2023-03-23T07:40:04;14.00;69.80
7708;DHT22;3896;48.758;8.888;2023-03-23T07:42:46;14.00;69.50
7708;DHT22;3896;48.758;8.888;2023-03-23T07:45:15;14.10;69.70
7708;DHT22;3896;48.758;8.888;2023-03-23T07:47:40;14.10;69.60
7708;DHT22;3896;48.758;8.888;2023-03-23T07:50:07;14.20;69.80
7708;DHT22;3896;48.758;8.888;2023-03-23T07:52:35;14.20;69.70
7708;DHT22;3896;48.758;8.888;2023-03-23T07:55:01;14.30;69.90
7708;DHT22;3896;48.758;8.888;2023-03-23T07:57:29;14.30;70.00
7708;DHT22;3896;48.758;8.888;2023-03-23T07:59:55;14.40;69.90
7708;DHT22;3896;48.758;8.888;2023-03-23T08:02:22;14.40;70.40
7708;DHT22;3896;48.758;8.888;2023-03-23T08:04:48;14.50;70.30
7708;DHT22;3896;48.758;8.888;2023-03-23T08:07:14;14.60;70.40
7708;DHT22;3896;48.758;8.888;2023-03-23T08:09:42;14.60;70.30
7708;DHT22;3896;48.758;8.888;2023-03-23T08:12:07;14.60;70.70
7708;DHT22;3896;48.758;8.888;2023-03-23T08:14:33;14.70;70.70
7708;DHT22;3896;48.758;8.888;2023-03-23T08:16:58;14.80;70.70
7708;DHT22;3896;48.758;8.888;2023-03-23T08:19:24;14.80;70.80
7708;DHT22;3896;48.758;8.888;2023-03-23T08:21:50;14.90;70.90
7708;DHT22;3896;48.758;8.888;2023-03-23T08:24:16;15.00;70.90
7708;DHT22;3896;48.758;8.888;2023-03-23T08:26:41;15.00;70.80
7708;DHT22;3896;48.758;8.888;2023-03-23T08:29:07;15.10;71.10
7708;DHT22;3896;48.758;8.888;2023-03-23T08:31:34;15.10;70.90
7708;DHT22;3896;48.758;8.888;2023-03-23T08:34:01;15.20;71.00
7708;DHT22;3896;48.758;8.888;2023-03-23T08:36:27;15.20;71.10
7708;DHT22;3896;48.758;8.888;2023-03-23T08:38:53;15.30;71.10
7708;DHT22;3896;48.758;8.888;2023-03-23T08:41:19;15.40;71.00
7708;DHT22;3896;48.758;8.888;2023-03-23T08:43:45;15.40;71.00
7708;DHT22;3896;48.758;8.888;2023-03-23T08:46:12;15.40;70.80
7708;DHT22;3896;48.758;8.888;2023-03-23T08:48:38;15.50;70.80
7708;DHT22;3896;48.758;8.888;2023-03-23T08:51:05;15.60;70.90
7708;DHT22;3896;48.758;8.888;2023-03-23T08:53:32;15.60;70.90
7708;DHT22;3896;48.758;8.888;2023-03-23T08:56:09;15.60;70.80
7708;DHT22;3896;48.758;8.888;2023-03-23T08:58:36;15.60;70.70
7708;DHT22;3896;48.758;8.888;2023-03-23T09:01:02;15.60;70.70
7708;DHT22;3896;48.758;8.888;2023-03-23T09:03:28;15.70;71.60
7708;DHT22;3896;48.758;8.888;2023-03-23T09:05:57;15.70;70.70
7708;DHT22;3896;48.758;8.888;2023-03-23T09:08:23;15.80;70.70
7708;DHT22;3896;48.758;8.888;2023-03-23T09:10:48;15.80;70.70
7708;DHT22;3896;48.758;8.888;2023-03-23T09:13:15;15.90;70.90
7708;DHT22;3896;48.758;8.888;2023-03-23T09:15:40;15.90;70.80
7708;DHT22;3896;48.758;8.888;2023-03-23T09:18:06;16.00;70.60
7708;DHT22;3896;48.758;8.888;2023-03-23T09:20:32;16.00;70.30
7708;DHT22;3896;48.758;8.888;2023-03-23T09:22:59;16.10;70.00
7708;DHT22;3896;48.758;8.888;2023-03-23T09:25:26;16.20;70.00
7708;DHT22;3896;48.758;8.888;2023-03-23T09:27:55;16.20;69.60
7708;DHT22;3896;48.758;8.888;2023-03-23T09:30:26;16.30;69.70
7708;DHT22;3896;48.758;8.888;2023-03-23T09:32:52;16.40;69.60
7708;DHT22;3896;48.758;8.888;2023-03-23T09:35:18;16.50;69.20
7708;DHT22;3896;48.758;8.888;2023-03-23T09:37:47;16.50;69.00
7708;DHT22;3896;48.758;8.888;2023-03-23T09:40:18;16.60;69.00
7708;DHT22;3896;48.758;8.888;2023-03-23T09:42:48;16.70;69.20
7708;DHT22;3896;48.758;8.888;2023-03-23T09:45:24;16.70;69.30
7708;DHT22;3896;48.758;8.888;2023-03-23T09:48:16;16.80;69.60
7708;DHT22;3896;48.758;8.888;2023-03-23T09:50:48;16.80;69.20
7708;DHT22;3896;48.758;8.888;2023-03-23T09:53:22;16.90;69.50
7708;DHT22;3896;48.758;8.888;2023-03-23T09:55:49;17.00;70.40
7708;DHT22;3896;48.758;8.888;2023-03-23T09:58:27;17.10;69.60
7708;DHT22;3896;48.758;8.888;2023-03-23T10:01:04;17.30;69.60
7708;DHT22;3896;48.758;8.888;2023-03-23T10:03:40;17.40;69.40
7708;DHT22;3896;48.758;8.888;2023-03-23T10:06:11;17.50;69.00
7708;DHT22;3896;48.758;8.888;2023-03-23T10:08:41;17.70;68.60
7708;DHT22;3896;48.758;8.888;2023-03-23T10:14:09;17.90;68.10
7708;DHT22;3896;48.758;8.888;2023-03-23T10:16:47;18.00;67.80
7708;DHT22;3896;48.758;8.888;2023-03-23T10:19:38;18.10;67.60
7708;DHT22;3896;48.758;8.888;2023-03-23T10:22:12;18.20;67.50
7708;DHT22;3896;48.758;8.888;2023-03-23T10:27:45;18.30;66.80
7708;DHT22;3896;48.758;8.888;2023-03-23T10:33:20;18.40;66.40
7708;DHT22;3896;48.758;8.888;2023-03-23T10:35:59;18.50;66.20
7708;DHT22;3896;48.758;8.888;2023-03-23T10:38:32;18.60;65.90
7708;DHT22;3896;48.758;8.888;2023-03-23T10:41:02;18.70;65.70
7708;DHT22;3896;48.758;8.888;2023-03-23T10:43:29;18.80;66.00
7708;DHT22;3896;48.758;8.888;2023-03-23T10:46:03;18.90;65.90
7708;DHT22;3896;48.758;8.888;2023-03-23T10:48:35;19.00;65.80
7708;DHT22;3896;48.758;8.888;2023-03-23T10:51:04;19.10;65.30
7708;DHT22;3896;48.758;8.888;2023-03-23T10:53:38;19.30;65.20
7708;DHT22;3896;48.758;8.888;2023-03-23T10:56:17;19.30;64.10
7708;DHT22;3896;48.758;8.888;2023-03-23T10:58:44;19.40;63.60
7708;DHT22;3896;48.758;8.888;2023-03-23T11:01:12;19.50;63.40
7708;DHT22;3896;48.758;8.888;2023-03-23T11:03:46;19.60;62.90
7708;DHT22;3896;48.758;8.888;2023-03-23T11:06:48;19.60;63.00
7708;DHT22;3896;48.758;8.888;2023-03-23T11:09:17;19.60;63.30
7708;DHT22;3896;48.758;8.888;2023-03-23T11:11:52;19.60;63.00
7708;DHT22;3896;48.758;8.888;2023-03-23T11:14:33;19.60;62.80
7708;DHT22;3896;48.758;8.888;2023-03-23T11:17:04;19.60;62.30
7708;DHT22;3896;48.758;8.888;2023-03-23T11:19:34;19.60;61.70
7708;DHT22;3896;48.758;8.888;2023-03-23T11:24:40;19.50;61.10
7708;DHT22;3896;48.758;8.888;2023-03-23T11:27:07;19.60;61.40
7708;DHT22;3896;48.758;8.888;2023-03-23T11:29:35;19.50;61.50
7708;DHT22;3896;48.758;8.888;2023-03-23T11:32:05;19.60;61.80
7708;DHT22;3896;48.758;8.888;2023-03-23T11:34:36;19.60;61.90
7708;DHT22;3896;48.758;8.888;2023-03-23T11:37:13;19.60;62.40
7708;DHT22;3896;48.758;8.888;2023-03-23T11:39:59;19.60;61.30
7708;DHT22;3896;48.758;8.888;2023-03-23T11:42:37;19.70;61.00
7708;DHT22;3896;48.758;8.888;2023-03-23T11:45:17;19.70;60.80
7708;DHT22;3896;48.758;8.888;2023-03-23T11:50:59;19.70;61.40
7708;DHT22;3896;48.758;8.888;2023-03-23T11:58:40;19.80;60.80
7708;DHT22;3896;48.758;8.888;2023-03-23T12:09:32;19.90;60.30
7708;DHT22;3896;48.758;8.888;2023-03-23T12:14:50;20.10;60.00
7708;DHT22;3896;48.758;8.888;2023-03-23T12:20:08;20.10;60.00
7708;DHT22;3896;48.758;8.888;2023-03-23T12:22:55;20.20;59.80
7708;DHT22;3896;48.758;8.888;2023-03-23T12:30:43;20.30;57.90
7708;DHT22;3896;48.758;8.888;2023-03-23T12:38:50;20.60;57.10
7708;DHT22;3896;48.758;8.888;2023-03-23T12:41:52;20.70;57.00
7708;DHT22;3896;48.758;8.888;2023-03-23T12:45:00;20.80;57.20
7708;DHT22;3896;48.758;8.888;2023-03-23T12:47:39;20.90;57.10
7708;DHT22;3896;48.758;8.888;2023-03-23T12:52:42;21.10;56.60
7708;DHT22;3896;48.758;8.888;2023-03-23T12:55:25;21.20;56.20
7708;DHT22;3896;48.758;8.888;2023-03-23T12:58:13;21.30;55.70
7708;DHT22;3896;48.758;8.888;2023-03-23T13:04:07;21.50;55.10
7708;DHT22;3896;48.758;8.888;2023-03-23T13:06:39;21.60;54.70
7708;DHT22;3896;48.758;8.888;2023-03-23T13:11:34;21.70;54.50
7708;DHT22;3896;48.758;8.888;2023-03-23T13:17:43;21.80;54.20
7708;DHT22;3896;48.758;8.888;2023-03-23T13:20:34;21.80;53.70
7708;DHT22;3896;48.758;8.888;2023-03-23T13:28:48;21.90;53.60
7708;DHT22;3896;48.758;8.888;2023-03-23T13:31:27;21.90;53.70
7708;DHT22;3896;48.758;8.888;2023-03-23T13:34:21;22.00;53.70
7708;DHT22;3896;48.758;8.888;2023-03-23T13:37:02;22.00;53.60
7708;DHT22;3896;48.758;8.888;2023-03-23T13:39:37;22.00;53.70
7708;DHT22;3896;48.758;8.888;2023-03-23T13:44:54;22.10;53.70
7708;DHT22;3896;48.758;8.888;2023-03-23T13:52:37;22.20;53.30
7708;DHT22;3896;48.758;8.888;2023-03-23T14:05:39;21.90;53.00
7708;DHT22;3896;48.758;8.888;2023-03-23T14:10:43;21.90;52.80
7708;DHT22;3896;48.758;8.888;2023-03-23T14:16:26;21.90;52.80
7708;DHT22;3896;48.758;8.888;2023-03-23T14:18:55;21.80;53.10
7708;DHT22;3896;48.758;8.888;2023-03-23T14:24:00;21.70;53.30
7708;DHT22;3896;48.758;8.888;2023-03-23T14:26:25;21.80;53.30
7708;DHT22;3896;48.758;8.888;2023-03-23T14:28:53;21.80;53.50
7708;DHT22;3896;48.758;8.888;2023-03-23T14:31:22;21.70;53.30
7708;DHT22;3896;48.758;8.888;2023-03-23T14:33:49;21.70;53.50
7708;DHT22;3896;48.758;8.888;2023-03-23T14:36:20;21.70;53.70
7708;DHT22;3896;48.758;8.888;2023-03-23T14:38:47;21.60;53.50
7708;DHT22;3896;48.758;8.888;2023-03-23T14:41:12;21.60;53.30
7708;DHT22;3896;48.758;8.888;2023-03-23T14:43:38;21.60;53.30
7708;DHT22;3896;48.758;8.888;2023-03-23T14:46:10;21.60;52.80
7708;DHT22;3896;48.758;8.888;2023-03-23T14:48:36;21.50;52.60
7708;DHT22;3896;48.758;8.888;2023-03-23T14:51:04;21.50;52.70
7708;DHT22;3896;48.758;8.888;2023-03-23T14:53:37;21.40;52.50
7708;DHT22;3896;48.758;8.888;2023-03-23T14:56:10;21.40;52.40
7708;DHT22;3896;48.758;8.888;2023-03-23T14:58:36;21.40;52.30
7708;DHT22;3896;48.758;8.888;2023-03-23T15:01:08;21.40;52.30
7708;DHT22;3896;48.758;8.888;2023-03-23T15:03:38;21.40;52.30
7708;DHT22;3896;48.758;8.888;2023-03-23T15:06:16;21.40;52.30
7708;DHT22;3896;48.758;8.888;2023-03-23T15:08:44;21.40;52.30
7708;DHT22;3896;48.758;8.888;2023-03-23T15:13:48;21.40;52.20
7708;DHT22;3896;48.758;8.888;2023-03-23T15:16:20;21.40;52.10
7708;DHT22;3896;48.758;8.888;2023-03-23T15:21:35;21.30;52.00
7708;DHT22;3896;48.758;8.888;2023-03-23T15:24:02;21.20;52.00
7708;DHT22;3896;48.758;8.888;2023-03-23T15:26:42;21.20;52.00
7708;DHT22;3896;48.758;8.888;2023-03-23T15:29:12;21.20;51.80
7708;DHT22;3896;48.758;8.888;2023-03-23T15:31:47;21.20;51.80
7708;DHT22;3896;48.758;8.888;2023-03-23T15:34:30;21.20;51.70
7708;DHT22;3896;48.758;8.888;2023-03-23T15:37:04;21.10;51.30
7708;DHT22;3896;48.758;8.888;2023-03-23T15:39:31;21.00;51.10
7708;DHT22;3896;48.758;8.888;2023-03-23T15:41:58;21.00;51.20
7708;DHT22;3896;48.758;8.888;2023-03-23T15:44:28;21.00;51.40
7708;DHT22;3896;48.758;8.888;2023-03-23T15:47:04;20.90;51.30
7708;DHT22;3896;48.758;8.888;2023-03-23T15:49:30;20.90;51.20
7708;DHT22;3896;48.758;8.888;2023-03-23T15:51:55;20.90;51.10
7708;DHT22;3896;48.758;8.888;2023-03-23T15:54:21;20.80;51.00
7708;DHT22;3896;48.758;8.888;2023-03-23T15:56:46;20.80;51.00
7708;DHT22;3896;48.758;8.888;2023-03-23T15:59:12;20.70;50.80
7708;DHT22;3896;48.758;8.888;2023-03-23T16:01:40;20.70;50.70
7708;DHT22;3896;48.758;8.888;2023-03-23T16:04:14;20.60;50.40
7708;DHT22;3896;48.758;8.888;2023-03-23T16:06:41;20.50;50.30
7708;DHT22;3896;48.758;8.888;2023-03-23T16:09:13;20.40;50.30
7708;DHT22;3896;48.758;8.888;2023-03-23T16:11:39;20.30;50.10
7708;DHT22;3896;48.758;8.888;2023-03-23T16:14:05;20.30;50.20
7708;DHT22;3896;48.758;8.888;2023-03-23T16:16:37;20.30;50.20
7708;DHT22;3896;48.758;8.888;2023-03-23T16:19:03;20.20;50.20
7708;DHT22;3896;48.758;8.888;2023-03-23T16:21:29;20.20;50.20
7708;DHT22;3896;48.758;8.888;2023-03-23T16:23:55;20.10;50.40
7708;DHT22;3896;48.758;8.888;2023-03-23T16:26:21;20.00;50.70
7708;DHT22;3896;48.758;8.888;2023-03-23T16:28:47;19.90;50.90
7708;DHT22;3896;48.758;8.888;2023-03-23T16:31:12;19.90;51.10
7708;DHT22;3896;48.758;8.888;2023-03-23T16:33:38;19.80;51.10
7708;DHT22;3896;48.758;8.888;2023-03-23T16:36:04;19.80;51.30
7708;DHT22;3896;48.758;8.888;2023-03-23T16:38:30;19.70;51.30
7708;DHT22;3896;48.758;8.888;2023-03-23T16:40:55;19.70;51.40
7708;DHT22;3896;48.758;8.888;2023-03-23T16:43:21;19.60;51.50
7708;DHT22;3896;48.758;8.888;2023-03-23T16:45:47;19.50;51.50
7708;DHT22;3896;48.758;8.888;2023-03-23T16:48:14;19.40;51.60
7708;DHT22;3896;48.758;8.888;2023-03-23T16:50:41;19.40;51.80
7708;DHT22;3896;48.758;8.888;2023-03-23T16:53:08;19.30;51.90
7708;DHT22;3896;48.758;8.888;2023-03-23T16:55:35;19.30;52.00
7708;DHT22;3896;48.758;8.888;2023-03-23T16:58:01;19.30;52.20
7708;DHT22;3896;48.758;8.888;2023-03-23T17:00:27;19.30;52.40
7708;DHT22;3896;48.758;8.888;2023-03-23T17:02:54;19.20;52.40
7708;DHT22;3896;48.758;8.888;2023-03-23T17:05:23;19.20;52.50
7708;DHT22;3896;48.758;8.888;2023-03-23T17:07:50;19.10;52.70
7708;DHT22;3896;48.758;8.888;2023-03-23T17:10:16;19.10;53.10
7708;DHT22;3896;48.758;8.888;2023-03-23T17:12:42;19.00;52.90
7708;DHT22;3896;48.758;8.888;2023-03-23T17:15:10;18.90;53.00
7708;DHT22;3896;48.758;8.888;2023-03-23T17:17:37;18.90;53.10
7708;DHT22;3896;48.758;8.888;2023-03-23T17:20:03;18.80;53.00
7708;DHT22;3896;48.758;8.888;2023-03-23T17:22:29;18.80;53.00
7708;DHT22;3896;48.758;8.888;2023-03-23T17:24:55;18.80;53.00
7708;DHT22;3896;48.758;8.888;2023-03-23T17:27:22;18.70;53.00
7708;DHT22;3896;48.758;8.888;2023-03-23T17:29:48;18.70;53.80
7708;DHT22;3896;48.758;8.888;2023-03-23T17:32:13;18.60;53.30
7708;DHT22;3896;48.758;8.888;2023-03-23T17:34:39;18.60;53.50
7708;DHT22;3896;48.758;8.888;2023-03-23T17:37:05;18.50;53.50
7708;DHT22;3896;48.758;8.888;2023-03-23T17:39:31;18.50;53.70
7708;DHT22;3896;48.758;8.888;2023-03-23T17:41:58;18.50;53.80
7708;DHT22;3896;48.758;8.888;2023-03-23T17:44:24;18.40;53.80
7708;DHT22;3896;48.758;8.888;2023-03-23T17:46:50;18.40;54.00
7708;DHT22;3896;48.758;8.888;2023-03-23T17:49:16;18.30;54.00
7708;DHT22;3896;48.758;8.888;2023-03-23T17:51:41;18.20;54.00
7708;DHT22;3896;48.758;8.888;2023-03-23T17:54:07;18.20;54.20
7708;DHT22;3896;48.758;8.888;2023-03-23T17:56:33;18.10;54.30
7708;DHT22;3896;48.758;8.888;2023-03-23T17:58:58;18.10;54.50
7708;DHT22;3896;48.758;8.888;2023-03-23T18:01:24;18.00;54.50
7708;DHT22;3896;48.758;8.888;2023-03-23T18:03:50;18.00;54.60
7708;DHT22;3896;48.758;8.888;2023-03-23T18:06:15;17.90;54.70
7708;DHT22;3896;48.758;8.888;2023-03-23T18:08:41;17.90;55.00
7708;DHT22;3896;48.758;8.888;2023-03-23T18:11:06;17.80;55.00
7708;DHT22;3896;48.758;8.888;2023-03-23T18:13:34;17.80;55.20
7708;DHT22;3896;48.758;8.888;2023-03-23T18:16:00;17.70;55.40